sensor_id;sensor_type;location;lat;lon;timestamp;P1;durP1;ratioP1;P2;durP2;ratioP2
18893;SDS011;9579;49.488;8.226;2022-11-20T00:00:48;22.93;;;21.00;;
18893;SDS011;9579;49.488;8.226;2022-11-20T00:03:35;22.30;;;20.50;;
18893;SDS011;9579;49.488;8.226;2022-11-20T00:06:23;23.13;;;21.30;;
18893;SDS011;9579;49.488;8.226;2022-11-20T00:09:12;22.73;;;20.93;;
18893;SDS011;9579;49.488;8.226;2022-11-20T00:15:27;28.93;;;26.53;;
18893;SDS011;9579;49.488;8.226;2022-11-20T00:18:14;23.87;;;21.90;;
18893;SDS011;9579;49.488;8.226;2022-11-20T00:21:02;22.53;;;20.73;;
18893;SDS011;9579;49.488;8.226;2022-11-20T00:23:50;22.97;;;21.07;;
18893;SDS011;9579;49.488;8.226;2022-11-20T00:26:39;22.93;;;21.07;;
18893;SDS011;9579;49.488;8.226;2022-11-20T00:29:26;25.20;;;23.10;;
18893;SDS011;9579;49.488;8.226;2022-11-20T00:32:13;23.23;;;21.40;;
18893;SDS011;9579;49.488;8.226;2022-11-20T00:35:00;24.20;;;22.27;;
18893;SDS011;9579;49.488;8.226;2022-11-20T00:37:47;24.53;;;22.50;;
18893;SDS011;9579;49.488;8.226;2022-11-20T00:40:34;23.30;;;21.40;;
18893;SDS011;9579;49.488;8.226;2022-11-20T00:43:23;24.07;;;22.07;;
18893;SDS011;9579;49.488;8.226;2022-11-20T00:46:11;22.93;;;21.03;;
18893;SDS011;9579;49.488;8.226;2022-11-20T00:49:00;22.10;;;20.30;;
18893;SDS011;9579;49.488;8.226;2022-11-20T00:51:47;23.10;;;21.20;;
18893;SDS011;9579;49.488;8.226;2022-11-20T00:54:34;23.70;;;21.77;;
18893;SDS011;9579;49.488;8.226;2022-11-20T00:57:21;23.53;;;21.63;;
18893;SDS011;9579;49.488;8.226;2022-11-20T07:00:31;17.67;;;16.07;;
18893;SDS011;9579;49.488;8.226;2022-11-20T07:03:19;18.67;;;16.97;;
18893;SDS011;9579;49.488;8.226;2022-11-20T07:06:06;18.50;;;16.90;;
18893;SDS011;9579;49.488;8.226;2022-11-20T07:08:54;18.57;;;17.00;;
18893;SDS011;9579;49.488;8.226;2022-11-20T07:11:41;17.90;;;16.30;;
18893;SDS011;9579;49.488;8.226;2022-11-20T07:14:28;17.77;;;16.27;;
18893;SDS011;9579;49.488;8.226;2022-11-20T07:17:16;17.43;;;15.93;;
18893;SDS011;9579;49.488;8.226;2022-11-20T07:20:03;18.47;;;16.80;;
18893;SDS011;9579;49.488;8.226;2022-11-20T07:22:52;19.27;;;17.57;;
18893;SDS011;9579;49.488;8.226;2022-11-20T07:25:40;18.93;;;17.23;;
18893;SDS011;9579;49.488;8.226;2022-11-20T07:28:27;19.23;;;17.53;;
18893;SDS011;9579;49.488;8.226;2022-11-20T07:31:14;18.70;;;17.10;;
18893;SDS011;9579;49.488;8.226;2022-11-20T07:34:03;19.27;;;17.67;;
18893;SDS011;9579;49.488;8.226;2022-11-20T07:36:50;19.37;;;17.77;;
18893;SDS011;9579;49.488;8.226;2022-11-20T07:39:37;24.40;;;19.80;;
18893;SDS011;9579;49.488;8.226;2022-11-20T07:42:24;19.77;;;18.07;;
18893;SDS011;9579;49.488;8.226;2022-11-20T07:45:18;18.67;;;17.07;;
18893;SDS011;9579;49.488;8.226;2022-11-20T07:48:06;19.50;;;17.80;;
18893;SDS011;9579;49.488;8.226;2022-11-20T07:50:55;18.87;;;17.27;;
18893;SDS011;9579;49.488;8.226;2022-11-20T07:53:42;20.20;;;18.40;;
18893;SDS011;9579;49.488;8.226;2022-11-20T07:56:29;20.30;;;18.47;;
18893;SDS011;9579;49.488;8.226;2022-11-20T07:59:16;20.03;;;18.27;;
18893;SDS011;9579;49.488;8.226;2022-11-20T08:02:03;21.37;;;19.47;;
18893;SDS011;9579;49.488;8.226;2022-11-20T08:04:50;20.17;;;18.23;;
18893;SDS011;9579;49.488;8.226;2022-11-20T08:07:39;20.67;;;18.77;;
18893;SDS011;9579;49.488;8.226;2022-11-20T08:10:28;20.70;;;18.83;;
18893;SDS011;9579;49.488;8.226;2022-11-20T08:13:15;21.17;;;19.37;;
18893;SDS011;9579;49.488;8.226;2022-11-20T08:16:19;20.53;;;18.63;;
18893;SDS011;9579;49.488;8.226;2022-11-20T08:19:07;21.37;;;19.43;;
18893;SDS011;9579;49.488;8.226;2022-11-20T08:21:54;19.70;;;17.90;;
18893;SDS011;9579;49.488;8.226;2022-11-20T08:24:43;19.53;;;17.83;;
18893;SDS011;9579;49.488;8.226;2022-11-20T08:27:31;18.93;;;17.33;;
18893;SDS011;9579;49.488;8.226;2022-11-20T08:30:18;18.77;;;17.27;;
18893;SDS011;9579;49.488;8.226;2022-11-20T08:33:06;18.60;;;17.10;;
18893;SDS011;9579;49.488;8.226;2022-11-20T08:35:57;18.73;;;17.07;;
18893;SDS011;9579;49.488;8.226;2022-11-20T08:38:46;19.90;;;18.20;;
18893;SDS011;9579;49.488;8.226;2022-11-20T08:41:35;21.00;;;19.20;;
18893;SDS011;9579;49.488;8.226;2022-11-20T08:44:22;26.20;;;23.70;;
18893;SDS011;9579;49.488;8.226;2022-11-20T08:47:09;23.37;;;21.27;;
18893;SDS011;9579;49.488;8.226;2022-11-20T08:49:56;21.73;;;19.73;;
18893;SDS011;9579;49.488;8.226;2022-11-20T08:52:44;21.40;;;19.50;;
18893;SDS011;9579;49.488;8.226;2022-11-20T08:55:31;23.43;;;21.43;;
18893;SDS011;9579;49.488;8.226;2022-11-20T08:58:21;22.77;;;20.77;;
18893;SDS011;9579;49.488;8.226;2022-11-20T09:01:09;24.47;;;22.27;;
18893;SDS011;9579;49.488;8.226;2022-11-20T09:03:56;19.37;;;17.67;;
18893;SDS011;9579;49.488;8.226;2022-11-20T09:06:44;18.27;;;16.77;;
18893;SDS011;9579;49.488;8.226;2022-11-20T09:09:36;23.37;;;21.17;;
18893;SDS011;9579;49.488;8.226;2022-11-20T09:12:23;23.90;;;21.60;;
18893;SDS011;9579;49.488;8.226;2022-11-20T09:15:11;18.50;;;16.90;;
18893;SDS011;9579;49.488;8.226;2022-11-20T09:17:59;18.77;;;17.17;;
18893;SDS011;9579;49.488;8.226;2022-11-20T09:20:47;18.40;;;16.80;;
18893;SDS011;9579;49.488;8.226;2022-11-20T09:23:35;19.87;;;18.10;;
18893;SDS011;9579;49.488;8.226;2022-11-20T09:26:23;20.20;;;18.40;;
18893;SDS011;9579;49.488;8.226;2022-11-20T09:29:10;21.17;;;19.27;;
18893;SDS011;9579;49.488;8.226;2022-11-20T09:31:58;19.87;;;18.17;;
18893;SDS011;9579;49.488;8.226;2022-11-20T09:34:45;20.20;;;18.40;;
18893;SDS011;9579;49.488;8.226;2022-11-20T09:37:35;18.80;;;17.10;;
18893;SDS011;9579;49.488;8.226;2022-11-20T09:40:24;18.90;;;17.30;;
18893;SDS011;9579;49.488;8.226;2022-11-20T09:43:15;19.00;;;17.40;;
18893;SDS011;9579;49.488;8.226;2022-11-20T09:46:07;19.20;;;17.60;;
18893;SDS011;9579;49.488;8.226;2022-11-20T09:49:06;19.97;;;18.27;;
18893;SDS011;9579;49.488;8.226;2022-11-20T09:52:10;20.03;;;18.27;;
18893;SDS011;9579;49.488;8.226;2022-11-20T09:55:08;22.93;;;20.73;;
18893;SDS011;9579;49.488;8.226;2022-11-20T09:57:58;22.60;;;20.63;;
18893;SDS011;9579;49.488;8.226;2022-11-20T10:00:46;22.87;;;20.80;;
18893;SDS011;9579;49.488;8.226;2022-11-20T10:03:37;22.60;;;20.43;;
18893;SDS011;9579;49.488;8.226;2022-11-20T10:06:31;24.27;;;21.97;;
18893;SDS011;9579;49.488;8.226;2022-11-20T10:09:21;23.27;;;21.17;;
18893;SDS011;9579;49.488;8.226;2022-11-20T10:12:15;23.57;;;21.37;;
18893;SDS011;9579;49.488;8.226;2022-11-20T10:15:22;22.70;;;20.53;;
18893;SDS011;9579;49.488;8.226;2022-11-20T10:18:22;23.63;;;21.43;;
18893;SDS011;9579;49.488;8.226;2022-11-20T10:21:19;22.13;;;20.13;;
18893;SDS011;9579;49.488;8.226;2022-11-20T10:27:33;22.53;;;20.33;;
18893;SDS011;9579;49.488;8.226;2022-11-20T10:30:42;23.17;;;20.97;;
18893;SDS011;9579;49.488;8.226;2022-11-20T10:33:32;23.77;;;21.47;;
18893;SDS011;9579;49.488;8.226;2022-11-20T10:36:26;23.03;;;20.83;;
18893;SDS011;9579;49.488;8.226;2022-11-20T10:39:18;24.87;;;22.50;;
18893;SDS011;9579;49.488;8.226;2022-11-20T10:42:12;24.30;;;22.00;;
18893;SDS011;9579;49.488;8.226;2022-11-20T10:45:04;25.07;;;22.67;;
18893;SDS011;9579;49.488;8.226;2022-11-20T10:48:07;25.20;;;22.63;;
18893;SDS011;9579;49.488;8.226;2022-11-20T10:51:08;24.40;;;22.10;;
18893;SDS011;9579;49.488;8.226;2022-11-20T10:54:11;24.93;;;22.57;;
18893;SDS011;9579;49.488;8.226;2022-11-20T10:57:07;23.10;;;20.90;;
18893;SDS011;9579;49.488;8.226;2022-11-20T11:00:04;23.83;;;21.53;;
18893;SDS011;9579;49.488;8.226;2022-11-20T11:02:52;22.53;;;20.43;;
18893;SDS011;9579;49.488;8.226;2022-11-20T11:05:43;20.00;;;18.10;;
18893;SDS011;9579;49.488;8.226;2022-11-20T11:08:37;22.97;;;20.87;;
18893;SDS011;9579;49.488;8.226;2022-11-20T11:11:26;20.90;;;18.97;;
18893;SDS011;9579;49.488;8.226;2022-11-20T11:14:16;19.73;;;17.93;;
18893;SDS011;9579;49.488;8.226;2022-11-20T11:17:04;19.93;;;18.03;;
18893;SDS011;9579;49.488;8.226;2022-11-20T11:20:01;20.33;;;18.47;;
18893;SDS011;9579;49.488;8.226;2022-11-20T11:22:51;19.30;;;17.53;;
18893;SDS011;9579;49.488;8.226;2022-11-20T11:25:40;20.03;;;18.23;;
18893;SDS011;9579;49.488;8.226;2022-11-20T11:28:27;19.47;;;17.67;;
18893;SDS011;9579;49.488;8.226;2022-11-20T11:31:22;18.57;;;16.97;;
18893;SDS011;9579;49.488;8.226;2022-11-20T11:34:11;19.33;;;17.63;;
18893;SDS011;9579;49.488;8.226;2022-11-20T11:37:00;17.87;;;16.17;;
18893;SDS011;9579;49.488;8.226;2022-11-20T11:39:49;17.33;;;15.63;;
18893;SDS011;9579;49.488;8.226;2022-11-20T11:42:40;16.70;;;15.20;;
18893;SDS011;9579;49.488;8.226;2022-11-20T11:45:28;17.87;;;16.17;;
18893;SDS011;9579;49.488;8.226;2022-11-20T11:48:16;17.23;;;15.63;;
18893;SDS011;9579;49.488;8.226;2022-11-20T11:51:07;17.10;;;15.50;;
18893;SDS011;9579;49.488;8.226;2022-11-20T11:53:55;13.87;;;12.67;;
18893;SDS011;9579;49.488;8.226;2022-11-20T11:56:45;14.27;;;12.97;;
18893;SDS011;9579;49.488;8.226;2022-11-20T11:59:37;14.10;;;12.90;;
18893;SDS011;9579;49.488;8.226;2022-11-20T12:02:38;12.50;;;11.40;;
18893;SDS011;9579;49.488;8.226;2022-11-20T12:05:38;9.73;;;8.93;;
18893;SDS011;9579;49.488;8.226;2022-11-20T12:08:30;5.77;;;4.90;;
18893;SDS011;9579;49.488;8.226;2022-11-20T12:11:24;5.33;;;4.83;;
18893;SDS011;9579;49.488;8.226;2022-11-20T12:14:18;4.07;;;3.30;;
18893;SDS011;9579;49.488;8.226;2022-11-20T12:17:12;4.27;;;2.27;;
18893;SDS011;9579;49.488;8.226;2022-11-20T12:20:01;2.97;;;2.13;;
18893;SDS011;9579;49.488;8.226;2022-11-20T12:22:51;4.30;;;2.00;;
18893;SDS011;9579;49.488;8.226;2022-11-20T12:25:48;6.80;;;4.60;;
18893;SDS011;9579;49.488;8.226;2022-11-20T12:28:42;3.60;;;2.10;;
18893;SDS011;9579;49.488;8.226;2022-11-20T12:31:41;3.27;;;2.37;;
18893;SDS011;9579;49.488;8.226;2022-11-20T12:34:47;2.80;;;2.23;;
18893;SDS011;9579;49.488;8.226;2022-11-20T12:37:45;3.57;;;2.30;;
18893;SDS011;9579;49.488;8.226;2022-11-20T12:40:43;4.30;;;2.60;;
18893;SDS011;9579;49.488;8.226;2022-11-20T12:43:37;4.33;;;2.50;;
18893;SDS011;9579;49.488;8.226;2022-11-20T12:46:53;2.90;;;2.30;;
18893;SDS011;9579;49.488;8.226;2022-11-20T12:49:56;3.70;;;2.47;;
18893;SDS011;9579;49.488;8.226;2022-11-20T12:52:57;3.90;;;2.53;;
18893;SDS011;9579;49.488;8.226;2022-11-20T12:55:52;4.03;;;2.40;;
18893;SDS011;9579;49.488;8.226;2022-11-20T12:58:49;4.13;;;2.53;;
18893;SDS011;9579;49.488;8.226;2022-11-20T13:01:49;4.57;;;2.50;;
18893;SDS011;9579;49.488;8.226;2022-11-20T13:04:45;3.17;;;2.37;;
18893;SDS011;9579;49.488;8.226;2022-11-20T13:07:44;2.73;;;2.40;;
18893;SDS011;9579;49.488;8.226;2022-11-20T13:10:35;3.10;;;2.20;;
18893;SDS011;9579;49.488;8.226;2022-11-20T13:13:31;2.67;;;1.97;;
18893;SDS011;9579;49.488;8.226;2022-11-20T13:16:27;4.50;;;2.73;;
18893;SDS011;9579;49.488;8.226;2022-11-20T13:19:19;3.63;;;2.47;;
18893;SDS011;9579;49.488;8.226;2022-11-20T13:22:07;3.97;;;2.40;;
18893;SDS011;9579;49.488;8.226;2022-11-20T13:24:55;5.00;;;2.40;;
18893;SDS011;9579;49.488;8.226;2022-11-20T13:27:48;3.33;;;2.13;;
18893;SDS011;9579;49.488;8.226;2022-11-20T13:30:36;2.97;;;2.10;;
18893;SDS011;9579;49.488;8.226;2022-11-20T13:33:35;2.50;;;2.00;;
18893;SDS011;9579;49.488;8.226;2022-11-20T13:36:24;3.10;;;1.97;;
18893;SDS011;9579;49.488;8.226;2022-11-20T13:39:23;4.17;;;2.10;;
18893;SDS011;9579;49.488;8.226;2022-11-20T13:42:20;2.37;;;1.90;;
18893;SDS011;9579;49.488;8.226;2022-11-20T13:45:22;3.03;;;1.93;;
18893;SDS011;9579;49.488;8.226;2022-11-20T13:48:19;3.07;;;1.90;;
18893;SDS011;9579;49.488;8.226;2022-11-20T13:51:10;1.93;;;1.60;;
18893;SDS011;9579;49.488;8.226;2022-11-20T13:54:09;3.37;;;1.87;;
18893;SDS011;9579;49.488;8.226;2022-11-20T13:57:13;2.40;;;1.63;;
18893;SDS011;9579;49.488;8.226;2022-11-20T14:00:23;2.77;;;1.70;;
18893;SDS011;9579;49.488;8.226;2022-11-20T14:03:14;4.57;;;1.60;;
18893;SDS011;9579;49.488;8.226;2022-11-20T14:06:05;2.60;;;1.60;;
18893;SDS011;9579;49.488;8.226;2022-11-20T14:09:00;2.43;;;1.73;;
18893;SDS011;9579;49.488;8.226;2022-11-20T14:11:47;3.90;;;1.90;;
18893;SDS011;9579;49.488;8.226;2022-11-20T14:14:34;2.13;;;1.50;;
18893;SDS011;9579;49.488;8.226;2022-11-20T14:17:23;3.93;;;1.87;;
18893;SDS011;9579;49.488;8.226;2022-11-20T14:20:16;2.17;;;1.60;;
18893;SDS011;9579;49.488;8.226;2022-11-20T14:23:09;3.13;;;1.70;;
18893;SDS011;9579;49.488;8.226;2022-11-20T14:25:59;2.83;;;1.63;;
18893;SDS011;9579;49.488;8.226;2022-11-20T14:28:50;2.47;;;1.73;;
18893;SDS011;9579;49.488;8.226;2022-11-20T14:31:38;2.70;;;1.70;;
18893;SDS011;9579;49.488;8.226;2022-11-20T14:34:27;2.53;;;1.60;;
18893;SDS011;9579;49.488;8.226;2022-11-20T14:37:17;2.60;;;1.80;;
18893;SDS011;9579;49.488;8.226;2022-11-20T14:40:21;2.10;;;1.50;;
18893;SDS011;9579;49.488;8.226;2022-11-20T14:43:17;2.20;;;1.60;;
18893;SDS011;9579;49.488;8.226;2022-11-20T14:46:08;2.60;;;1.80;;
18893;SDS011;9579;49.488;8.226;2022-11-20T14:48:57;3.27;;;1.83;;
18893;SDS011;9579;49.488;8.226;2022-11-20T14:51:59;3.20;;;2.10;;
18893;SDS011;9579;49.488;8.226;2022-11-20T14:54:49;2.90;;;1.93;;
18893;SDS011;9579;49.488;8.226;2022-11-20T14:57:38;1.83;;;1.57;;
18893;SDS011;9579;49.488;8.226;2022-11-20T15:00:25;1.93;;;1.50;;
18893;SDS011;9579;49.488;8.226;2022-11-20T15:03:15;2.10;;;1.40;;
18893;SDS011;9579;49.488;8.226;2022-11-20T15:06:03;1.50;;;1.40;;
18893;SDS011;9579;49.488;8.226;2022-11-20T15:08:52;2.30;;;1.57;;
18893;SDS011;9579;49.488;8.226;2022-11-20T15:11:39;2.00;;;1.63;;
18893;SDS011;9579;49.488;8.226;2022-11-20T15:14:39;2.13;;;1.60;;
18893;SDS011;9579;49.488;8.226;2022-11-20T15:17:27;2.67;;;1.67;;
18893;SDS011;9579;49.488;8.226;2022-11-20T15:20:15;2.07;;;1.47;;
18893;SDS011;9579;49.488;8.226;2022-11-20T15:23:07;2.50;;;1.70;;
18893;SDS011;9579;49.488;8.226;2022-11-20T15:26:01;2.83;;;1.60;;
18893;SDS011;9579;49.488;8.226;2022-11-20T15:28:50;2.40;;;1.40;;
18893;SDS011;9579;49.488;8.226;2022-11-20T15:31:38;2.30;;;1.57;;
18893;SDS011;9579;49.488;8.226;2022-11-20T15:34:26;1.90;;;1.60;;
18893;SDS011;9579;49.488;8.226;2022-11-20T15:37:14;2.30;;;1.40;;
18893;SDS011;9579;49.488;8.226;2022-11-20T15:40:01;2.70;;;1.50;;
18893;SDS011;9579;49.488;8.226;2022-11-20T15:42:49;2.47;;;1.90;;
18893;SDS011;9579;49.488;8.226;2022-11-20T15:45:53;2.73;;;1.90;;
18893;SDS011;9579;49.488;8.226;2022-11-20T15:48:43;2.23;;;1.90;;
18893;SDS011;9579;49.488;8.226;2022-11-20T15:51:32;2.50;;;1.60;;
18893;SDS011;9579;49.488;8.226;2022-11-20T15:54:22;2.00;;;1.57;;
18893;SDS011;9579;49.488;8.226;2022-11-20T15:57:09;1.87;;;1.50;;
18893;SDS011;9579;49.488;8.226;2022-11-20T15:59:57;2.37;;;1.70;;
18893;SDS011;9579;49.488;8.226;2022-11-20T16:02:44;4.07;;;1.80;;
18893;SDS011;9579;49.488;8.226;2022-11-20T16:05:31;3.17;;;2.87;;
18893;SDS011;9579;49.488;8.226;2022-11-20T16:08:19;4.33;;;1.87;;
18893;SDS011;9579;49.488;8.226;2022-11-20T16:11:06;3.77;;;2.30;;
18893;SDS011;9579;49.488;8.226;2022-11-20T16:13:54;2.43;;;2.20;;
18893;SDS011;9579;49.488;8.226;2022-11-20T16:17:00;3.60;;;3.30;;
18893;SDS011;9579;49.488;8.226;2022-11-20T16:19:47;2.47;;;2.17;;
18893;SDS011;9579;49.488;8.226;2022-11-20T16:22:37;3.57;;;2.40;;
18893;SDS011;9579;49.488;8.226;2022-11-20T16:25:24;4.30;;;2.70;;
18893;SDS011;9579;49.488;8.226;2022-11-20T16:28:13;4.37;;;2.70;;
18893;SDS011;9579;49.488;8.226;2022-11-20T16:31:07;3.47;;;3.00;;
18893;SDS011;9579;49.488;8.226;2022-11-20T16:33:56;2.93;;;2.27;;
18893;SDS011;9579;49.488;8.226;2022-11-20T16:36:45;3.53;;;2.13;;
18893;SDS011;9579;49.488;8.226;2022-11-20T16:39:32;2.27;;;2.07;;
18893;SDS011;9579;49.488;8.226;2022-11-20T16:42:19;3.80;;;3.30;;
18893;SDS011;9579;49.488;8.226;2022-11-20T16:45:06;5.50;;;4.97;;
18893;SDS011;9579;49.488;8.226;2022-11-20T16:47:54;4.30;;;3.50;;
18893;SDS011;9579;49.488;8.226;2022-11-20T16:50:47;3.37;;;2.57;;
18893;SDS011;9579;49.488;8.226;2022-11-20T16:53:35;4.73;;;4.10;;
18893;SDS011;9579;49.488;8.226;2022-11-20T16:56:24;5.60;;;4.43;;
18893;SDS011;9579;49.488;8.226;2022-11-20T16:59:23;4.40;;;3.30;;
18893;SDS011;9579;49.488;8.226;2022-11-20T17:02:10;4.67;;;4.07;;
18893;SDS011;9579;49.488;8.226;2022-11-20T17:04:57;4.87;;;3.33;;
18893;SDS011;9579;49.488;8.226;2022-11-20T17:07:46;5.27;;;3.40;;
18893;SDS011;9579;49.488;8.226;2022-11-20T17:10:33;4.80;;;4.40;;
18893;SDS011;9579;49.488;8.226;2022-11-20T17:13:20;3.73;;;2.90;;
18893;SDS011;9579;49.488;8.226;2022-11-20T17:16:08;4.33;;;2.93;;
18893;SDS011;9579;49.488;8.226;2022-11-20T17:18:57;3.70;;;2.73;;
18893;SDS011;9579;49.488;8.226;2022-11-20T17:21:45;4.00;;;2.73;;
18893;SDS011;9579;49.488;8.226;2022-11-20T17:24:35;6.30;;;5.80;;
18893;SDS011;9579;49.488;8.226;2022-11-20T17:27:22;5.97;;;4.30;;
18893;SDS011;9579;49.488;8.226;2022-11-20T17:30:09;5.90;;;4.40;;
18893;SDS011;9579;49.488;8.226;2022-11-20T17:33:10;4.70;;;4.00;;
18893;SDS011;9579;49.488;8.226;2022-11-20T17:36:04;4.70;;;3.33;;
18893;SDS011;9579;49.488;8.226;2022-11-20T17:38:59;4.47;;;3.30;;
18893;SDS011;9579;49.488;8.226;2022-11-20T17:41:47;4.20;;;3.80;;
18893;SDS011;9579;49.488;8.226;2022-11-20T17:44:58;3.70;;;3.40;;
18893;SDS011;9579;49.488;8.226;2022-11-20T17:47:46;4.73;;;3.37;;
18893;SDS011;9579;49.488;8.226;2022-11-20T17:50:35;4.53;;;3.77;;
18893;SDS011;9579;49.488;8.226;2022-11-20T17:53:37;5.60;;;3.80;;
18893;SDS011;9579;49.488;8.226;2022-11-20T17:56:29;3.70;;;2.77;;
18893;SDS011;9579;49.488;8.226;2022-11-20T17:59:35;4.10;;;3.30;;
18893;SDS011;9579;49.488;8.226;2022-11-20T18:02:23;3.97;;;2.90;;
18893;SDS011;9579;49.488;8.226;2022-11-20T18:05:10;3.90;;;2.77;;
18893;SDS011;9579;49.488;8.226;2022-11-20T18:07:57;4.73;;;2.80;;
18893;SDS011;9579;49.488;8.226;2022-11-20T18:10:45;3.07;;;2.70;;
18893;SDS011;9579;49.488;8.226;2022-11-20T18:13:32;4.97;;;2.73;;
18893;SDS011;9579;49.488;8.226;2022-11-20T18:16:35;3.93;;;2.80;;
18893;SDS011;9579;49.488;8.226;2022-11-20T18:19:25;5.63;;;2.83;;
18893;SDS011;9579;49.488;8.226;2022-11-20T18:22:13;3.63;;;2.70;;
18893;SDS011;9579;49.488;8.226;2022-11-20T18:25:01;4.37;;;2.87;;
18893;SDS011;9579;49.488;8.226;2022-11-20T18:27:48;3.70;;;2.70;;
18893;SDS011;9579;49.488;8.226;2022-11-20T18:30:35;4.20;;;3.10;;
18893;SDS011;9579;49.488;8.226;2022-11-20T18:33:23;3.70;;;2.40;;
18893;SDS011;9579;49.488;8.226;2022-11-20T18:36:11;4.13;;;2.70;;
18893;SDS011;9579;49.488;8.226;2022-11-20T18:38:59;4.30;;;3.00;;
18893;SDS011;9579;49.488;8.226;2022-11-20T18:41:46;3.93;;;2.70;;
18893;SDS011;9579;49.488;8.226;2022-11-20T18:44:51;4.90;;;2.93;;
18893;SDS011;9579;49.488;8.226;2022-11-20T18:47:39;4.03;;;2.83;;
18893;SDS011;9579;49.488;8.226;2022-11-20T18:50:27;4.10;;;2.90;;
18893;SDS011;9579;49.488;8.226;2022-11-20T18:53:14;3.97;;;2.93;;
18893;SDS011;9579;49.488;8.226;2022-11-20T18:56:02;3.00;;;2.70;;
18893;SDS011;9579;49.488;8.226;2022-11-20T19:02:07;4.37;;;3.23;;
18893;SDS011;9579;49.488;8.226;2022-11-20T19:04:55;5.37;;;2.80;;
18893;SDS011;9579;49.488;8.226;2022-11-20T19:07:43;3.43;;;2.40;;
18893;SDS011;9579;49.488;8.226;2022-11-20T19:10:31;2.30;;;2.10;;
18893;SDS011;9579;49.488;8.226;2022-11-20T19:13:18;1.83;;;1.60;;
18893;SDS011;9579;49.488;8.226;2022-11-20T19:16:19;2.23;;;1.87;;
18893;SDS011;9579;49.488;8.226;2022-11-20T19:19:07;1.87;;;1.60;;
18893;SDS011;9579;49.488;8.226;2022-11-20T19:21:55;1.63;;;1.53;;
18893;SDS011;9579;49.488;8.226;2022-11-20T19:24:43;2.83;;;1.87;;
18893;SDS011;9579;49.488;8.226;2022-11-20T19:27:30;1.60;;;1.50;;
18893;SDS011;9579;49.488;8.226;2022-11-20T19:30:17;1.50;;;1.40;;
18893;SDS011;9579;49.488;8.226;2022-11-20T19:33:04;1.60;;;1.50;;
18893;SDS011;9579;49.488;8.226;2022-11-20T19:35:52;1.27;;;1.17;;
18893;SDS011;9579;49.488;8.226;2022-11-20T19:38:39;1.50;;;1.40;;
18893;SDS011;9579;49.488;8.226;2022-11-20T19:41:29;1.40;;;1.30;;
18893;SDS011;9579;49.488;8.226;2022-11-20T19:44:17;1.40;;;1.30;;
18893;SDS011;9579;49.488;8.226;2022-11-20T19:47:04;1.40;;;1.30;;
18893;SDS011;9579;49.488;8.226;2022-11-20T19:49:51;1.30;;;1.20;;
18893;SDS011;9579;49.488;8.226;2022-11-20T19:52:38;1.20;;;1.10;;
18893;SDS011;9579;49.488;8.226;2022-11-20T19:55:25;1.27;;;1.10;;
18893;SDS011;9579;49.488;8.226;2022-11-20T19:58:13;1.33;;;1.23;;
18893;SDS011;9579;49.488;8.226;2022-11-20T20:01:04;1.07;;;1.07;;
18893;SDS011;9579;49.488;8.226;2022-11-20T20:03:52;0.80;;;0.80;;
18893;SDS011;9579;49.488;8.226;2022-11-20T20:06:40;1.00;;;1.00;;
18893;SDS011;9579;49.488;8.226;2022-11-20T20:09:27;1.20;;;1.10;;
18893;SDS011;9579;49.488;8.226;2022-11-20T20:12:15;1.20;;;0.90;;
18893;SDS011;9579;49.488;8.226;2022-11-20T20:15:03;1.20;;;0.93;;
18893;SDS011;9579;49.488;8.226;2022-11-20T20:17:51;1.13;;;1.03;;
18893;SDS011;9579;49.488;8.226;2022-11-20T20:20:38;1.67;;;1.10;;
18893;SDS011;9579;49.488;8.226;2022-11-20T20:23:25;1.20;;;1.10;;
18893;SDS011;9579;49.488;8.226;2022-11-20T20:26:12;1.17;;;1.03;;
18893;SDS011;9579;49.488;8.226;2022-11-20T20:29:00;1.50;;;1.40;;
18893;SDS011;9579;49.488;8.226;2022-11-20T20:31:48;1.37;;;1.23;;
18893;SDS011;9579;49.488;8.226;2022-11-20T20:34:36;1.43;;;1.33;;
18893;SDS011;9579;49.488;8.226;2022-11-20T20:37:23;1.30;;;1.20;;
18893;SDS011;9579;49.488;8.226;2022-11-20T20:40:10;1.30;;;1.20;;
18893;SDS011;9579;49.488;8.226;2022-11-20T20:42:58;1.43;;;1.17;;
18893;SDS011;9579;49.488;8.226;2022-11-20T20:45:45;1.43;;;1.33;;
18893;SDS011;9579;49.488;8.226;2022-11-20T20:48:35;1.50;;;1.40;;
18893;SDS011;9579;49.488;8.226;2022-11-20T20:51:26;2.67;;;1.50;;
18893;SDS011;9579;49.488;8.226;2022-11-20T20:54:13;1.50;;;1.40;;
18893;SDS011;9579;49.488;8.226;2022-11-20T20:57:00;2.87;;;1.80;;
18893;SDS011;9579;49.488;8.226;2022-11-20T20:59:47;2.17;;;1.60;;
18893;SDS011;9579;49.488;8.226;2022-11-20T21:02:34;2.40;;;1.63;;
18893;SDS011;9579;49.488;8.226;2022-11-20T21:05:39;2.47;;;1.70;;
18893;SDS011;9579;49.488;8.226;2022-11-20T21:08:34;2.03;;;1.57;;
18893;SDS011;9579;49.488;8.226;2022-11-20T21:11:26;2.77;;;1.93;;
18893;SDS011;9579;49.488;8.226;2022-11-20T21:20:24;2.67;;;1.80;;
18893;SDS011;9579;49.488;8.226;2022-11-20T21:23:32;3.30;;;1.87;;
18893;SDS011;9579;49.488;8.226;2022-11-20T21:29:49;3.17;;;1.77;;
18893;SDS011;9579;49.488;8.226;2022-11-20T21:32:51;3.00;;;2.00;;
18893;SDS011;9579;49.488;8.226;2022-11-20T21:35:57;2.20;;;1.80;;
18893;SDS011;9579;49.488;8.226;2022-11-20T21:38:45;5.60;;;2.23;;
18893;SDS011;9579;49.488;8.226;2022-11-20T21:41:33;4.50;;;2.37;;
18893;SDS011;9579;49.488;8.226;2022-11-20T21:44:29;5.67;;;2.60;;
18893;SDS011;9579;49.488;8.226;2022-11-20T21:47:16;4.53;;;2.40;;
18893;SDS011;9579;49.488;8.226;2022-11-20T21:50:03;3.90;;;2.50;;
18893;SDS011;9579;49.488;8.226;2022-11-20T21:52:51;4.00;;;2.13;;
18893;SDS011;9579;49.488;8.226;2022-11-20T21:55:39;3.97;;;2.33;;
18893;SDS011;9579;49.488;8.226;2022-11-20T21:58:26;5.77;;;2.53;;
18893;SDS011;9579;49.488;8.226;2022-11-20T22:01:14;5.07;;;2.40;;
18893;SDS011;9579;49.488;8.226;2022-11-20T22:04:02;3.80;;;2.30;;
18893;SDS011;9579;49.488;8.226;2022-11-20T22:06:52;5.10;;;2.50;;
18893;SDS011;9579;49.488;8.226;2022-11-20T22:09:39;5.37;;;2.27;;
18893;SDS011;9579;49.488;8.226;2022-11-20T22:12:27;7.37;;;2.50;;
18893;SDS011;9579;49.488;8.226;2022-11-20T22:15:14;4.40;;;2.30;;
18893;SDS011;9579;49.488;8.226;2022-11-20T22:18:00;4.37;;;2.67;;
18893;SDS011;9579;49.488;8.226;2022-11-20T22:21:02;3.80;;;2.37;;
18893;SDS011;9579;49.488;8.226;2022-11-20T22:23:50;4.73;;;2.47;;
18893;SDS011;9579;49.488;8.226;2022-11-20T22:26:38;4.63;;;2.50;;
18893;SDS011;9579;49.488;8.226;2022-11-20T22:29:26;3.57;;;2.23;;
18893;SDS011;9579;49.488;8.226;2022-11-20T22:32:13;5.80;;;2.63;;
18893;SDS011;9579;49.488;8.226;2022-11-20T22:35:00;5.33;;;2.30;;
18893;SDS011;9579;49.488;8.226;2022-11-20T22:37:48;5.57;;;2.57;;
18893;SDS011;9579;49.488;8.226;2022-11-20T22:40:35;4.00;;;2.20;;
18893;SDS011;9579;49.488;8.226;2022-11-20T22:43:22;4.80;;;2.43;;
18893;SDS011;9579;49.488;8.226;2022-11-20T22:46:10;5.43;;;2.43;;
18893;SDS011;9579;49.488;8.226;2022-11-20T22:48:59;7.17;;;3.07;;
18893;SDS011;9579;49.488;8.226;2022-11-20T22:51:47;5.23;;;2.60;;
18893;SDS011;9579;49.488;8.226;2022-11-20T22:54:34;6.60;;;2.73;;
18893;SDS011;9579;49.488;8.226;2022-11-20T22:57:21;6.40;;;2.70;;
18893;SDS011;9579;49.488;8.226;2022-11-20T23:00:09;6.33;;;2.63;;
18893;SDS011;9579;49.488;8.226;2022-11-20T23:02:58;4.67;;;1.87;;
18893;SDS011;9579;49.488;8.226;2022-11-20T23:05:45;6.30;;;2.70;;
18893;SDS011;9579;49.488;8.226;2022-11-20T23:08:32;7.27;;;3.03;;
18893;SDS011;9579;49.488;8.226;2022-11-20T23:11:20;7.33;;;2.87;;
18893;SDS011;9579;49.488;8.226;2022-11-20T23:14:10;6.00;;;2.70;;
18893;SDS011;9579;49.488;8.226;2022-11-20T23:16:59;4.83;;;2.50;;
18893;SDS011;9579;49.488;8.226;2022-11-20T23:19:47;6.70;;;2.83;;
18893;SDS011;9579;49.488;8.226;2022-11-20T23:22:34;5.83;;;2.90;;
18893;SDS011;9579;49.488;8.226;2022-11-20T23:25:21;5.90;;;2.53;;
18893;SDS011;9579;49.488;8.226;2022-11-20T23:28:08;6.60;;;2.77;;
18893;SDS011;9579;49.488;8.226;2022-11-20T23:30:55;5.33;;;2.40;;
18893;SDS011;9579;49.488;8.226;2022-11-20T23:33:44;5.37;;;2.33;;